Time;durP1;ratioP1;P1;durP2;ratioP2;P2;SDS_P1;SDS_P2;PMS_P1;PMS_P2;Temp;Humidity;BMP_temperature;BMP_pressure;BME280_temperature;BME280_humidity;BME280_pressure;Samples;Min_cycle;Max_cycle;Signal;HPM_P1;HPM_P2
2022/02/13 00:01:15;;;;;;;7.03;2.95;;;6.00;89.60;;;;;;5092672;28;20047;-66
2022/02/13 00:03:40;;;;;;;7.40;2.90;;;6.00;89.10;;;;;;5095329;28;20073;-66
2022/02/13 00:06:06;;;;;;;11.82;4.00;;;5.90;88.90;;;;;;5101563;28;20432;-66
2022/02/13 00:08:32;;;;;;;7.13;2.53;;;5.90;88.80;;;;;;5080422;28;20042;-66
2022/02/13 00:10:58;;;;;;;5.15;2.90;;;5.80;88.90;;;;;;5080099;28;20115;-66
2022/02/13 00:13:23;;;;;;;8.50;3.20;;;5.80;89.00;;;;;;5093415;28;20260;-66
2022/02/13 00:15:52;;;;;;;7.20;2.92;;;5.80;89.20;;;;;;5092945;28;20520;-66
2022/02/13 00:18:19;;;;;;;7.00;2.95;;;5.80;89.20;;;;;;5086258;28;20031;-66
2022/02/13 00:20:44;;;;;;;4.43;2.10;;;5.80;89.40;;;;;;5086828;28;20040;-66
2022/02/13 00:23:10;;;;;;;7.13;3.22;;;5.80;89.40;;;;;;5092907;28;20387;-66
2022/02/13 00:25:36;;;;;;;7.70;2.83;;;5.80;89.40;;;;;;5093612;28;20034;-66
2022/02/13 00:28:01;;;;;;;5.90;2.95;;;5.80;89.30;;;;;;5085347;28;20033;-65
2022/02/13 00:30:30;;;;;;;4.68;2.60;;;5.70;89.20;;;;;;5074625;28;20032;-65
2022/02/13 00:32:56;;;;;;;8.23;3.15;;;5.70;89.50;;;;;;5093577;28;20020;-66
2022/02/13 00:35:22;;;;;;;8.73;3.97;;;5.70;89.50;;;;;;5093312;28;20028;-66
2022/02/13 00:37:48;;;;;;;5.78;2.50;;;5.70;89.40;;;;;;5092830;28;20524;-66
2022/02/13 00:40:13;;;;;;;4.07;2.10;;;5.70;89.40;;;;;;5093112;28;20043;-66
2022/02/13 00:42:39;;;;;;;7.47;3.05;;;5.70;89.40;;;;;;5093501;28;20051;-66
2022/02/13 00:45:05;;;;;;;5.38;2.50;;;5.60;89.30;;;;;;5078794;28;20051;-66
2022/02/13 00:47:31;;;;;;;7.85;3.63;;;5.70;89.40;;;;;;5093078;28;20043;-66
2022/02/13 00:49:56;;;;;;;7.97;3.00;;;5.60;89.30;;;;;;5093102;28;20012;-66
2022/02/13 00:52:22;;;;;;;7.72;3.45;;;5.60;89.40;;;;;;5094639;28;20038;-65
2022/02/13 00:54:48;;;;;;;2.30;1.55;;;5.60;89.60;;;;;;5096201;28;20364;-66
2022/02/13 00:57:13;;;;;;;1.42;1.33;;;5.60;89.60;;;;;;5093028;28;20028;-66
2022/02/13 00:59:39;;;;;;;6.07;3.03;;;5.60;89.70;;;;;;5075950;28;20044;-66
2022/02/13 01:02:05;;;;;;;3.53;1.63;;;5.60;89.70;;;;;;5100260;28;20047;-66
2022/02/13 01:04:31;;;;;;;7.57;2.13;;;5.60;89.60;;;;;;5107526;28;20053;-66
2022/02/13 01:06:59;;;;;;;5.35;3.15;;;5.60;89.60;;;;;;5085462;28;20178;-65
2022/02/13 01:09:27;;;;;;;4.95;2.45;;;5.60;89.70;;;;;;5085640;28;20059;-66
2022/02/13 01:11:55;;;;;;;6.35;2.75;;;5.60;89.80;;;;;;5079704;28;20070;-66
2022/02/13 01:14:22;;;;;;;7.40;2.83;;;5.60;89.60;;;;;;5091731;28;20032;-66
2022/02/13 01:16:47;;;;;;;3.95;2.40;;;5.60;89.60;;;;;;5092618;28;20039;-66
2022/02/13 01:19:13;;;;;;;5.68;2.83;;;5.60;89.60;;;;;;5078305;28;20384;-66
2022/02/13 01:21:39;;;;;;;6.40;2.42;;;5.60;89.20;;;;;;5092687;28;20044;-66
2022/02/13 01:24:05;;;;;;;7.53;3.33;;;5.50;89.00;;;;;;5092210;28;20035;-66
2022/02/13 01:26:31;;;;;;;4.75;2.95;;;5.50;89.30;;;;;;5091829;28;20028;-66
2022/02/13 01:28:56;;;;;;;7.40;3.35;;;5.50;89.40;;;;;;5092255;28;20081;-65
2022/02/13 01:31:22;;;;;;;3.22;2.17;;;5.50;89.30;;;;;;5092245;28;20498;-65
2022/02/13 01:33:48;;;;;;;7.15;2.58;;;5.40;89.40;;;;;;5091329;28;20024;-66
2022/02/13 01:36:13;;;;;;;6.70;2.95;;;5.50;89.60;;;;;;5091504;28;20031;-66
2022/02/13 01:38:39;;;;;;;9.95;3.50;;;5.50;89.70;;;;;;5092052;28;20027;-66
2022/02/13 01:41:05;;;;;;;3.55;1.95;;;5.50;89.60;;;;;;5091340;28;20040;-66
2022/02/13 01:43:31;;;;;;;2.67;1.88;;;5.40;89.40;;;;;;5092179;28;20032;-66
2022/02/13 01:45:58;;;;;;;3.53;2.33;;;5.40;89.60;;;;;;5091046;28;20039;-66
2022/02/13 01:48:24;;;;;;;6.60;2.95;;;5.40;89.80;;;;;;5091775;28;20025;-65
2022/02/13 01:50:53;;;;;;;5.30;3.00;;;5.40;89.80;;;;;;5092484;28;20040;-65
2022/02/13 01:53:22;;;;;;;4.53;1.90;;;5.40;89.60;;;;;;5097143;28;20032;-66
2022/02/13 01:55:48;;;;;;;4.03;2.35;;;5.50;89.60;;;;;;5091708;28;20420;-66
2022/02/13 01:58:15;;;;;;;7.70;3.75;;;5.40;89.60;;;;;;5078385;28;20020;-66
2022/02/13 02:00:41;;;;;;;9.32;3.55;;;5.40;89.60;;;;;;5084839;28;20132;-65
2022/02/13 02:03:07;;;;;;;6.75;3.03;;;5.40;89.60;;;;;;5091349;28;20048;-65
2022/02/13 02:05:32;;;;;;;6.45;3.30;;;5.40;89.40;;;;;;5102442;28;20386;-65
2022/02/13 02:07:58;;;;;;;7.32;3.33;;;5.40;89.60;;;;;;5092097;28;20542;-65
2022/02/13 02:10:24;;;;;;;12.65;3.65;;;5.40;89.40;;;;;;5091337;28;20034;-66
2022/02/13 02:12:50;;;;;;;4.03;2.67;;;5.40;89.40;;;;;;5089303;28;20097;-65
2022/02/13 02:15:16;;;;;;;6.18;2.85;;;5.40;89.40;;;;;;5072968;28;20036;-66
2022/02/13 02:17:42;;;;;;;7.82;3.50;;;5.30;89.30;;;;;;5091974;28;20081;-66
2022/02/13 02:20:08;;;;;;;8.68;3.78;;;5.30;89.50;;;;;;5091704;28;20115;-66
2022/02/13 02:22:34;;;;;;;10.32;3.78;;;5.30;89.40;;;;;;5091333;28;20036;-65
2022/02/13 02:25:02;;;;;;;7.32;2.13;;;5.30;89.60;;;;;;5091672;28;20596;-66
2022/02/13 02:27:27;;;;;;;8.57;3.15;;;5.30;89.70;;;;;;5091991;28;20032;-65
2022/02/13 02:29:56;;;;;;;5.93;2.60;;;5.20;89.70;;;;;;5091167;28;20028;-65
2022/02/13 02:32:22;;;;;;;10.13;4.38;;;5.20;89.70;;;;;;5092152;28;20025;-65
2022/02/13 02:34:47;;;;;;;3.33;2.15;;;5.20;90.00;;;;;;5091746;28;20387;-65
2022/02/13 02:37:13;;;;;;;14.02;3.58;;;5.20;90.00;;;;;;5078835;28;20032;-65
2022/02/13 02:39:39;;;;;;;1.33;1.23;;;5.20;90.00;;;;;;5071593;28;20037;-65
2022/02/13 02:42:05;;;;;;;8.27;3.70;;;5.30;90.10;;;;;;5084402;28;20196;-65
2022/02/13 02:44:33;;;;;;;8.65;4.18;;;5.20;90.10;;;;;;5090306;28;20028;-65
2022/02/13 02:46:59;;;;;;;5.80;3.50;;;5.20;90.10;;;;;;5091851;28;20035;-65
2022/02/13 02:49:25;;;;;;;9.10;3.63;;;5.20;90.00;;;;;;5082471;28;20028;-65
2022/02/13 02:51:50;;;;;;;5.07;3.20;;;5.30;90.00;;;;;;5094483;28;20389;-65
2022/02/13 02:54:16;;;;;;;5.00;2.60;;;5.20;89.80;;;;;;5106144;28;20032;-65
2022/02/13 02:56:42;;;;;;;9.82;3.28;;;5.20;89.80;;;;;;5095163;28;20114;-65
2022/02/13 02:59:07;;;;;;;5.88;2.88;;;5.20;90.00;;;;;;5094402;28;20042;-65
2022/02/13 03:01:33;;;;;;;7.25;3.38;;;5.10;90.00;;;;;;5101639;28;20040;-65
2022/02/13 03:03:58;;;;;;;3.97;2.03;;;5.10;90.10;;;;;;5100400;28;20131;-65
2022/02/13 03:06:24;;;;;;;5.80;3.67;;;5.10;90.00;;;;;;5094240;28;20035;-66
2022/02/13 03:08:50;;;;;;;5.05;2.70;;;5.10;90.00;;;;;;5095235;28;20365;-65
2022/02/13 03:11:18;;;;;;;6.32;3.08;;;5.10;90.10;;;;;;5081247;28;20472;-66
2022/02/13 03:13:45;;;;;;;8.57;4.32;;;5.10;90.20;;;;;;5094317;28;20028;-66
2022/02/13 03:16:10;;;;;;;6.43;2.38;;;5.00;90.20;;;;;;5094397;28;20032;-65
2022/02/13 03:18:39;;;;;;;7.70;3.25;;;5.10;90.30;;;;;;5094359;28;20039;-66
2022/02/13 03:21:05;;;;;;;7.13;2.67;;;5.00;90.20;;;;;;5077064;28;20136;-65
2022/02/13 03:23:31;;;;;;;4.13;2.20;;;5.00;90.20;;;;;;5085417;28;20024;-65
2022/02/13 03:25:57;;;;;;;9.20;3.40;;;5.00;90.20;;;;;;5080239;28;20081;-65
2022/02/13 03:28:22;;;;;;;8.02;2.42;;;5.00;90.20;;;;;;5083334;28;20029;-66
2022/02/13 03:30:48;;;;;;;5.85;3.00;;;5.00;90.20;;;;;;5074346;28;20032;-66
2022/02/13 03:33:14;;;;;;;4.18;2.47;;;5.10;90.20;;;;;;5084964;28;20382;-66
2022/02/13 03:35:40;;;;;;;4.40;2.58;;;5.00;90.30;;;;;;5080841;28;20038;-65
2022/02/13 03:38:06;;;;;;;6.85;2.72;;;5.10;90.20;;;;;;5094330;28;20032;-65
2022/02/13 03:40:33;;;;;;;4.20;1.88;;;5.00;90.20;;;;;;5093583;28;20075;-65
2022/02/13 03:42:58;;;;;;;11.00;3.50;;;5.00;90.10;;;;;;5094753;28;20028;-65
2022/02/13 03:45:24;;;;;;;9.30;3.60;;;5.00;90.20;;;;;;5087106;28;20738;-66
2022/02/13 03:47:50;;;;;;;9.85;3.45;;;5.00;90.20;;;;;;5086611;28;20059;-65
2022/02/13 03:50:16;;;;;;;8.25;3.95;;;5.00;90.20;;;;;;5080625;28;20032;-65
2022/02/13 03:52:42;;;;;;;10.15;3.50;;;4.90;90.10;;;;;;5093433;28;20024;-66
2022/02/13 03:55:11;;;;;;;7.07;3.83;;;5.00;90.10;;;;;;5097713;28;20028;-65
2022/02/13 03:57:37;;;;;;;6.38;3.28;;;5.00;90.20;;;;;;5103681;28;20479;-65
2022/02/13 04:00:04;;;;;;;9.77;3.45;;;4.90;90.20;;;;;;5078848;28;20045;-65
2022/02/13 04:02:37;;;;;;;4.13;1.95;;;5.00;90.30;;;;;;5101421;28;20583;-65
2022/02/13 04:05:03;;;;;;;4.70;2.65;;;5.00;90.20;;;;;;5096829;28;20020;-65
2022/02/13 04:07:29;;;;;;;2.58;1.98;;;5.00;90.30;;;;;;5093853;28;20144;-65
2022/02/13 04:09:55;;;;;;;6.85;3.42;;;4.90;90.30;;;;;;5093248;28;20037;-65
2022/02/13 04:12:24;;;;;;;8.98;3.10;;;4.90;90.30;;;;;;5100627;28;20047;-65
2022/02/13 04:14:50;;;;;;;4.25;1.75;;;5.00;90.30;;;;;;5088234;28;20366;-65
2022/02/13 04:17:16;;;;;;;5.00;2.72;;;5.00;90.30;;;;;;5085912;28;20032;-65
2022/02/13 04:19:42;;;;;;;7.20;3.03;;;5.00;90.30;;;;;;5079746;28;20042;-65
2022/02/13 04:22:07;;;;;;;1.77;1.67;;;5.00;90.40;;;;;;5093015;28;20097;-65
2022/02/13 04:24:33;;;;;;;2.92;2.42;;;4.90;90.40;;;;;;5085438;28;20051;-65
2022/02/13 04:26:58;;;;;;;7.25;3.58;;;5.00;90.40;;;;;;5093829;28;20130;-65
2022/02/13 04:29:24;;;;;;;5.13;2.30;;;5.00;90.40;;;;;;5097738;28;20031;-65
2022/02/13 04:31:50;;;;;;;7.00;3.38;;;5.00;90.40;;;;;;5086687;28;20421;-65
2022/02/13 04:34:15;;;;;;;5.40;3.00;;;5.00;90.30;;;;;;5093551;28;20038;-65
2022/02/13 04:36:43;;;;;;;4.72;2.80;;;4.90;90.30;;;;;;5092439;28;20038;-65
2022/02/13 04:39:08;;;;;;;5.93;3.38;;;4.90;90.30;;;;;;5093565;28;20020;-65
2022/02/13 04:41:34;;;;;;;8.48;3.92;;;4.90;90.30;;;;;;5093263;28;20068;-65
2022/02/13 04:44:00;;;;;;;7.30;3.10;;;4.90;90.30;;;;;;5084985;28;20395;-65
2022/02/13 04:46:25;;;;;;;7.78;2.97;;;4.90;90.30;;;;;;5087548;28;20028;-65
2022/02/13 04:48:51;;;;;;;4.53;2.75;;;4.90;90.20;;;;;;5093417;28;20395;-65
2022/02/13 04:51:17;;;;;;;3.35;2.00;;;4.90;90.30;;;;;;5078709;28;20077;-65
2022/02/13 04:53:42;;;;;;;5.47;3.13;;;4.80;90.40;;;;;;5084760;28;20457;-65
2022/02/13 04:56:11;;;;;;;6.75;3.28;;;4.80;90.40;;;;;;5088791;28;20125;-65
2022/02/13 04:58:37;;;;;;;6.35;3.20;;;4.80;90.50;;;;;;5092229;28;20071;-65
2022/02/13 05:01:02;;;;;;;3.72;3.10;;;4.80;90.50;;;;;;5095877;28;20616;-65
2022/02/13 05:03:29;;;;;;;3.30;2.08;;;4.90;90.50;;;;;;5096798;28;20116;-65
2022/02/13 05:05:54;;;;;;;7.93;2.95;;;4.80;90.50;;;;;;5080495;28;20070;-65
2022/02/13 05:08:21;;;;;;;5.47;2.72;;;4.90;90.60;;;;;;5090747;28;20035;-65
2022/02/13 05:10:47;;;;;;;4.70;2.70;;;4.90;90.60;;;;;;5080681;28;20028;-65
2022/02/13 05:13:13;;;;;;;5.00;3.08;;;4.90;90.60;;;;;;5077236;28;20066;-65
2022/02/13 05:15:38;;;;;;;4.35;2.65;;;5.00;90.60;;;;;;5092789;28;20479;-65
2022/02/13 05:18:04;;;;;;;2.97;1.83;;;4.90;90.50;;;;;;5092325;28;20024;-65
2022/02/13 05:20:30;;;;;;;7.75;2.88;;;4.90;90.50;;;;;;5090959;28;20036;-65
2022/02/13 05:22:57;;;;;;;6.82;3.47;;;4.90;90.50;;;;;;5072455;28;20111;-65
2022/02/13 05:25:23;;;;;;;7.85;4.00;;;4.90;90.30;;;;;;5089137;28;20496;-66
2022/02/13 05:27:49;;;;;;;4.80;2.65;;;4.90;90.30;;;;;;5079405;28;20028;-65
2022/02/13 05:30:15;;;;;;;8.95;3.30;;;4.80;90.30;;;;;;5092140;28;20032;-65
2022/02/13 05:32:42;;;;;;;2.72;1.80;;;4.80;90.40;;;;;;5083558;28;20443;-65
2022/02/13 05:35:09;;;;;;;6.57;2.22;;;4.80;90.50;;;;;;5085606;28;20032;-65
2022/02/13 05:37:35;;;;;;;7.97;3.80;;;4.80;90.60;;;;;;5084093;28;20101;-65
2022/02/13 05:40:02;;;;;;;5.50;3.40;;;4.80;90.60;;;;;;5086986;28;20036;-66
2022/02/13 05:42:27;;;;;;;7.20;3.55;;;4.80;90.60;;;;;;5083645;28;20514;-65
2022/02/13 05:44:54;;;;;;;4.55;2.78;;;4.80;90.60;;;;;;5087838;28;20063;-66
2022/02/13 05:47:20;;;;;;;6.65;3.33;;;4.80;90.70;;;;;;5082252;28;20103;-65
2022/02/13 05:49:46;;;;;;;3.28;1.73;;;4.80;90.60;;;;;;5088257;28;20427;-65
2022/02/13 05:52:12;;;;;;;3.22;2.33;;;4.80;90.60;;;;;;5092479;28;20118;-65
2022/02/13 05:54:37;;;;;;;4.78;2.92;;;4.80;90.60;;;;;;5075451;28;20063;-66
2022/02/13 05:57:03;;;;;;;2.67;2.15;;;4.80;90.60;;;;;;5072378;28;20024;-65
2022/02/13 05:59:29;;;;;;;1.27;1.17;;;4.80;90.60;;;;;;5085082;28;20048;-65
2022/02/13 06:01:55;;;;;;;11.15;4.05;;;4.80;90.60;;;;;;5093083;28;20039;-65
2022/02/13 06:04:22;;;;;;;4.72;2.25;;;4.70;90.60;;;;;;5089539;28;20036;-65
2022/02/13 06:06:49;;;;;;;6.13;2.10;;;4.80;90.60;;;;;;5085538;28;20036;-65
2022/02/13 06:09:15;;;;;;;12.32;3.80;;;4.70;90.60;;;;;;5071452;28;20037;-65
2022/02/13 06:11:41;;;;;;;5.68;2.35;;;4.70;90.60;;;;;;5085251;28;20038;-65
2022/02/13 06:14:07;;;;;;;9.27;3.10;;;4.70;90.60;;;;;;5084691;28;20398;-65
2022/02/13 06:16:32;;;;;;;5.65;3.05;;;4.70;90.70;;;;;;5091267;28;20180;-68
2022/02/13 06:18:58;;;;;;;11.45;4.40;;;4.70;90.70;;;;;;5092108;28;20028;-65
2022/02/13 06:21:23;;;;;;;4.93;2.70;;;4.70;90.60;;;;;;5091428;28;20040;-65
2022/02/13 06:23:50;;;;;;;4.22;2.33;;;4.70;90.60;;;;;;5087555;28;20027;-65
2022/02/13 06:26:16;;;;;;;7.57;2.35;;;4.70;90.60;;;;;;5082803;28;20023;-65
2022/02/13 06:28:42;;;;;;;5.05;3.10;;;4.60;90.50;;;;;;5094902;28;20490;-66
2022/02/13 06:31:08;;;;;;;4.78;3.13;;;4.60;90.60;;;;;;5095997;28;20028;-65
2022/02/13 06:33:33;;;;;;;8.90;3.30;;;4.60;90.60;;;;;;5095704;28;20036;-65
2022/02/13 06:35:59;;;;;;;4.72;3.25;;;4.60;90.70;;;;;;5095060;28;20127;-66
2022/02/13 06:38:25;;;;;;;7.45;3.05;;;4.60;90.60;;;;;;5094237;28;20157;-65
2022/02/13 06:40:50;;;;;;;6.78;3.45;;;4.60;90.60;;;;;;5083875;28;20027;-65
2022/02/13 06:43:16;;;;;;;4.90;2.13;;;4.60;90.60;;;;;;5094819;28;20074;-65
2022/02/13 06:45:41;;;;;;;3.72;2.30;;;4.60;90.60;;;;;;5090464;28;20039;-65
2022/02/13 06:48:08;;;;;;;6.80;4.00;;;4.60;90.70;;;;;;5081795;28;20036;-65
2022/02/13 06:50:34;;;;;;;4.68;2.70;;;4.50;90.70;;;;;;5094815;28;20032;-65
2022/02/13 06:53:00;;;;;;;5.97;2.53;;;4.60;90.70;;;;;;5094218;28;20024;-65
2022/02/13 06:55:27;;;;;;;3.45;2.05;;;4.60;90.70;;;;;;5094972;28;20429;-65
2022/02/13 06:57:52;;;;;;;10.55;3.47;;;4.60;90.60;;;;;;5087873;28;20529;-65
2022/02/13 07:00:18;;;;;;;6.78;3.88;;;4.60;90.70;;;;;;5093304;28;20043;-65
2022/02/13 07:02:45;;;;;;;7.32;3.35;;;4.60;90.70;;;;;;5106566;28;20085;-65
2022/02/13 07:05:11;;;;;;;8.40;3.35;;;4.50;90.70;;;;;;5091525;28;20025;-65
2022/02/13 07:07:36;;;;;;;8.70;3.50;;;4.50;90.70;;;;;;5075072;28;20054;-65
2022/02/13 07:10:05;;;;;;;6.45;3.78;;;4.50;90.70;;;;;;5092929;28;20028;-65
2022/02/13 07:12:30;;;;;;;9.35;2.53;;;4.50;90.80;;;;;;5093790;28;20107;-65
2022/02/13 07:14:56;;;;;;;7.95;3.40;;;4.50;90.80;;;;;;5094930;28;20115;-65
2022/02/13 07:17:22;;;;;;;4.32;2.60;;;4.50;90.80;;;;;;5091004;28;20032;-65
2022/02/13 07:19:47;;;;;;;7.18;3.92;;;4.50;90.80;;;;;;5090406;28;20042;-65
2022/02/13 07:22:13;;;;;;;7.97;4.05;;;4.50;90.80;;;;;;5084824;28;20046;-65
2022/02/13 07:24:40;;;;;;;4.88;2.95;;;4.50;90.80;;;;;;5094591;28;20032;-65
2022/02/13 07:27:07;;;;;;;11.32;4.18;;;4.50;90.80;;;;;;5094132;28;20046;-65
2022/02/13 07:29:34;;;;;;;4.05;2.45;;;4.50;90.80;;;;;;5094531;28;20035;-65
2022/02/13 07:32:00;;;;;;;4.93;2.58;;;4.50;90.90;;;;;;5093509;28;20034;-66
2022/02/13 07:34:25;;;;;;;4.72;3.25;;;4.50;91.00;;;;;;5092824;28;20031;-65
2022/02/13 07:36:55;;;;;;;4.05;2.70;;;4.50;91.00;;;;;;5094644;28;20368;-65
2022/02/13 07:39:21;;;;;;;6.18;2.88;;;4.60;90.90;;;;;;5074721;28;20032;-65
2022/02/13 07:41:47;;;;;;;8.85;4.45;;;4.60;90.90;;;;;;5074292;28;20055;-65
2022/02/13 07:44:13;;;;;;;4.95;3.28;;;4.60;91.00;;;;;;5092377;28;20024;-68
2022/02/13 07:46:38;;;;;;;13.18;3.63;;;4.60;90.90;;;;;;5092974;28;20026;-65
2022/02/13 07:49:07;;;;;;;3.13;1.80;;;4.60;90.90;;;;;;5092978;28;20471;-65
2022/02/13 07:51:33;;;;;;;5.60;2.67;;;4.60;90.90;;;;;;5092334;28;20046;-65
2022/02/13 07:54:00;;;;;;;4.18;2.92;;;4.70;91.00;;;;;;5092340;28;20028;-65
2022/02/13 07:56:25;;;;;;;7.93;2.47;;;4.60;91.00;;;;;;5093489;28;20043;-65
2022/02/13 07:58:52;;;;;;;6.40;3.15;;;4.60;90.90;;;;;;5090029;28;20048;-66
2022/02/13 08:01:22;;;;;;;6.35;2.78;;;4.70;91.00;;;;;;5092045;28;20047;-66
2022/02/13 08:03:48;;;;;;;10.52;4.28;;;4.70;90.90;;;;;;5093892;28;20099;-66
2022/02/13 08:06:15;;;;;;;8.30;3.50;;;4.70;91.00;;;;;;5093360;28;20078;-66
2022/02/13 08:08:41;;;;;;;3.30;2.28;;;4.70;90.90;;;;;;5089680;28;20025;-67
2022/02/13 08:11:07;;;;;;;7.95;3.90;;;4.70;91.00;;;;;;5093094;28;20074;-66
2022/02/13 08:13:34;;;;;;;4.47;2.17;;;4.70;90.90;;;;;;5093244;28;20031;-67
2022/02/13 08:16:00;;;;;;;4.07;2.35;;;4.70;91.00;;;;;;5092450;28;20028;-67
2022/02/13 08:18:25;;;;;;;2.60;2.05;;;4.70;91.00;;;;;;5092900;28;20157;-67
2022/02/13 08:20:54;;;;;;;5.32;3.00;;;4.70;91.00;;;;;;5092663;28;20520;-67
2022/02/13 08:23:21;;;;;;;7.43;3.80;;;4.70;91.10;;;;;;5092188;28;20036;-67
2022/02/13 08:25:48;;;;;;;2.47;1.45;;;4.70;91.00;;;;;;5092709;28;20051;-67
2022/02/13 08:28:17;;;;;;;7.07;4.22;;;4.70;91.10;;;;;;5086448;28;20057;-67
2022/02/13 08:30:43;;;;;;;5.53;2.85;;;4.70;91.20;;;;;;5092795;28;20027;-67
2022/02/13 08:33:09;;;;;;;6.63;3.88;;;4.70;91.20;;;;;;5092806;28;20055;-67
2022/02/13 08:35:35;;;;;;;8.73;4.18;;;4.70;91.20;;;;;;5091715;28;20039;-68
2022/02/13 08:38:01;;;;;;;4.63;2.85;;;4.70;91.20;;;;;;5091498;28;20388;-69
2022/02/13 08:40:28;;;;;;;8.00;3.67;;;4.70;91.20;;;;;;5091940;28;20036;-67
2022/02/13 08:42:53;;;;;;;10.57;4.05;;;4.70;91.30;;;;;;5091625;28;20496;-66
2022/02/13 08:45:19;;;;;;;7.00;3.58;;;4.70;91.30;;;;;;5092314;28;20024;-67
2022/02/13 08:47:45;;;;;;;9.40;4.32;;;4.70;91.40;;;;;;5092470;28;20424;-66
2022/02/13 08:50:11;;;;;;;8.80;4.32;;;4.70;91.30;;;;;;5091390;28;20023;-67
2022/02/13 08:52:37;;;;;;;9.27;3.95;;;4.70;91.30;;;;;;5091480;28;20513;-67
2022/02/13 08:55:03;;;;;;;10.95;4.43;;;4.70;91.40;;;;;;5086705;28;20032;-67
2022/02/13 08:57:28;;;;;;;10.60;4.97;;;4.70;91.40;;;;;;5090087;28;20044;-67
2022/02/13 08:59:54;;;;;;;9.75;4.63;;;4.70;91.40;;;;;;5086884;28;20054;-67
2022/02/13 09:02:20;;;;;;;12.70;4.38;;;4.70;91.40;;;;;;5088971;28;20484;-67
2022/02/13 09:04:45;;;;;;;10.35;4.95;;;4.60;91.50;;;;;;5088690;28;20115;-66
2022/02/13 09:07:11;;;;;;;6.88;3.88;;;4.60;91.70;;;;;;5080990;28;20082;-66
2022/02/13 09:09:37;;;;;;;11.30;5.07;;;4.60;91.70;;;;;;5086039;28;20024;-67
2022/02/13 09:12:02;;;;;;;10.73;4.82;;;4.60;91.70;;;;;;5080431;28;20045;-66
2022/02/13 09:14:28;;;;;;;9.32;4.22;;;4.60;91.80;;;;;;5079854;28;20032;-67
2022/02/13 09:16:54;;;;;;;7.85;4.75;;;4.60;91.90;;;;;;5078052;28;20019;-67
2022/02/13 09:19:20;;;;;;;9.88;4.85;;;4.60;91.90;;;;;;5082815;28;20034;-67
2022/02/13 09:21:51;;;;;;;10.90;4.28;;;4.60;92.00;;;;;;5091515;28;20044;-67
2022/02/13 09:24:18;;;;;;;10.88;4.80;;;4.60;92.00;;;;;;5079930;28;20052;-67
2022/02/13 09:26:44;;;;;;;8.70;4.43;;;4.60;92.00;;;;;;5090619;28;20055;-68
2022/02/13 09:29:10;;;;;;;8.43;4.45;;;4.70;92.10;;;;;;5091054;28;20028;-67
2022/02/13 09:31:35;;;;;;;7.03;3.40;;;4.70;92.10;;;;;;5091766;28;20411;-68
2022/02/13 09:34:01;;;;;;;8.20;4.47;;;4.70;92.10;;;;;;5084584;28;20482;-70
2022/02/13 09:36:26;;;;;;;9.93;4.63;;;4.70;92.10;;;;;;5086577;28;20029;-67
2022/02/13 09:38:53;;;;;;;8.43;4.07;;;4.80;92.10;;;;;;5090088;28;20456;-68
2022/02/13 09:41:19;;;;;;;7.75;4.53;;;4.80;92.10;;;;;;5077753;28;20025;-67
2022/02/13 09:43:44;;;;;;;11.85;3.83;;;4.90;92.20;;;;;;5092736;28;20024;-67
2022/02/13 09:46:13;;;;;;;9.48;4.20;;;4.90;92.10;;;;;;5091370;28;20474;-68
2022/02/13 09:48:39;;;;;;;8.70;4.82;;;4.90;92.20;;;;;;5091244;28;20036;-68
2022/02/13 09:51:05;;;;;;;9.40;4.65;;;4.90;92.20;;;;;;5091017;28;20024;-68
2022/02/13 09:53:34;;;;;;;6.75;3.35;;;5.00;92.20;;;;;;5091416;28;20028;-67
2022/02/13 09:56:05;;;;;;;9.70;4.43;;;5.00;92.20;;;;;;5091641;28;20030;-68
2022/02/13 09:58:31;;;;;;;12.93;5.40;;;5.00;92.20;;;;;;5096189;28;20040;-67
2022/02/13 10:00:59;;;;;;;7.47;3.85;;;5.00;92.30;;;;;;5095597;28;20119;-68
2022/02/13 10:03:27;;;;;;;5.35;3.45;;;5.10;92.20;;;;;;5100367;28;20027;-67
2022/02/13 10:05:55;;;;;;;12.57;4.45;;;5.10;92.30;;;;;;5081796;28;20058;-67
2022/02/13 10:08:31;;;;;;;8.98;4.55;;;5.10;92.30;;;;;;5095259;28;20559;-68
2022/02/13 10:11:08;;;;;;;10.32;5.22;;;5.20;92.30;;;;;;5096535;28;20028;-67
2022/02/13 10:14:04;;;;;;;9.68;4.13;;;5.20;92.30;;;;;;5095322;28;20060;-67
2022/02/13 10:16:51;;;;;;;12.38;3.92;;;5.30;92.30;;;;;;5074269;28;20040;-68
2022/02/13 10:19:22;;;;;;;8.35;3.53;;;5.20;92.30;;;;;;5083180;28;20030;-67
2022/02/13 10:21:55;;;;;;;7.47;3.40;;;5.20;92.30;;;;;;5093539;28;20063;-67
2022/02/13 10:24:22;;;;;;;6.00;3.15;;;5.30;92.40;;;;;;5085038;28;20062;-68
2022/02/13 10:27:08;;;;;;;5.38;3.45;;;5.30;92.30;;;;;;5095786;28;20032;-68
2022/02/13 10:29:42;;;;;;;6.15;2.78;;;5.40;92.70;;;;;;5088202;28;20144;-67
2022/02/13 10:32:17;;;;;;;4.75;3.17;;;5.40;92.30;;;;;;5095800;28;20413;-68
2022/02/13 10:35:06;;;;;;;6.32;3.50;;;5.50;92.40;;;;;;5094019;28;20032;-67
2022/02/13 10:37:45;;;;;;;7.45;3.47;;;5.60;92.40;;;;;;5083307;28;20074;-66
2022/02/13 10:40:21;;;;;;;7.13;4.47;;;5.60;92.30;;;;;;5083302;28;20046;-67
2022/02/13 10:42:48;;;;;;;6.38;2.03;;;5.60;92.30;;;;;;5080110;28;20111;-69
2022/02/13 10:45:26;;;;;;;2.75;2.17;;;5.60;92.30;;;;;;5089276;28;20032;-66
2022/02/13 10:48:00;;;;;;;6.00;2.58;;;5.70;92.30;;;;;;5092279;28;20085;-67
2022/02/13 10:50:37;;;;;;;6.32;3.60;;;5.70;92.30;;;;;;5087716;28;20072;-67
2022/02/13 10:53:05;;;;;;;4.95;3.38;;;5.70;92.30;;;;;;5083255;28;20037;-66
2022/02/13 10:55:34;;;;;;;5.45;2.20;;;5.80;92.30;;;;;;5086500;28;20111;-66
2022/02/13 10:58:00;;;;;;;9.57;3.97;;;5.80;92.40;;;;;;5086684;28;20036;-66
2022/02/13 11:00:28;;;;;;;3.20;1.98;;;5.90;92.40;;;;;;5088377;28;20048;-66
2022/02/13 11:02:54;;;;;;;4.38;2.40;;;6.00;92.40;;;;;;5095714;28;20111;-66
2022/02/13 11:05:21;;;;;;;3.22;2.38;;;6.00;92.30;;;;;;5095243;28;20494;-67
2022/02/13 11:07:55;;;;;;;6.13;2.95;;;6.10;92.30;;;;;;5090454;28;20037;-66
2022/02/13 11:10:24;;;;;;;;;;;6.10;92.20;;;;;;5086794;28;20039;-66
2022/02/13 11:12:53;;;;;;;7.13;2.38;;;6.20;92.10;;;;;;5095074;28;20283;-67
2022/02/13 11:15:32;;;;;;;0.98;0.90;;;6.10;92.00;;;;;;5093765;28;20036;-66
2022/02/13 11:18:02;;;;;;;4.38;2.80;;;6.20;92.20;;;;;;5083813;28;20035;-67
2022/02/13 11:20:29;;;;;;;8.50;2.33;;;6.20;92.30;;;;;;5090912;28;20032;-68
2022/02/13 11:23:05;;;;;;;4.10;2.55;;;6.30;92.20;;;;;;5090549;28;20034;-67
2022/02/13 11:25:52;;;;;;;5.45;2.85;;;6.30;92.20;;;;;;5086777;28;20467;-67
2022/02/13 11:28:24;;;;;;;10.43;3.78;;;6.30;92.20;;;;;;5085811;28;20426;-67
2022/02/13 11:30:51;;;;;;;6.18;3.67;;;6.40;92.10;;;;;;5090733;28;20028;-67
2022/02/13 11:33:26;;;;;;;10.73;4.65;;;6.40;92.20;;;;;;5093716;28;20027;-68
2022/02/13 11:35:57;;;;;;;9.07;4.15;;;6.40;92.20;;;;;;5094939;28;20020;-67
2022/02/13 11:38:44;;;;;;;6.32;3.25;;;6.40;92.20;;;;;;5087581;28;20044;-67
2022/02/13 11:41:10;;;;;;;5.47;3.47;;;6.40;92.20;;;;;;5086867;28;20051;-67
2022/02/13 11:43:44;;;;;;;6.80;3.75;;;6.40;92.40;;;;;;5093590;28;20052;-67
2022/02/13 11:46:17;;;;;;;8.55;3.95;;;6.40;92.40;;;;;;5087825;28;20021;-67
2022/02/13 11:48:43;;;;;;;4.57;2.72;;;6.40;92.40;;;;;;5092643;28;20032;-67
2022/02/13 11:51:10;;;;;;;6.40;3.30;;;6.40;92.70;;;;;;5091161;28;20031;-67
2022/02/13 11:53:43;;;;;;;7.13;3.80;;;6.40;92.50;;;;;;5087276;28;20062;-68
2022/02/13 11:56:19;;;;;;;7.22;2.92;;;6.50;92.60;;;;;;5087787;28;20479;-70
2022/02/13 11:58:48;;;;;;;5.97;2.47;;;6.50;92.60;;;;;;5084630;28;20101;-68
2022/02/13 12:01:35;;;;;;;8.98;2.75;;;6.60;92.60;;;;;;5085824;28;20043;-68
2022/02/13 12:04:07;;;;;;;5.47;2.53;;;6.60;92.70;;;;;;5089164;28;20032;-66
2022/02/13 12:06:34;;;;;;;6.80;3.67;;;6.70;92.70;;;;;;5087700;28;20032;-67
2022/02/13 12:09:01;;;;;;;10.85;3.60;;;6.70;92.60;;;;;;5093088;28;20100;-69
2022/02/13 12:11:32;;;;;;;9.80;3.88;;;6.80;92.50;;;;;;5093127;28;20426;-69
2022/02/13 12:13:59;;;;;;;9.35;3.80;;;6.80;92.40;;;;;;5092459;28;20427;-68
2022/02/13 12:16:28;;;;;;;5.35;3.42;;;6.80;92.40;;;;;;5087122;28;20040;-69
2022/02/13 12:18:54;;;;;;;2.95;1.85;;;6.90;92.50;;;;;;5092717;28;20138;-69
2022/02/13 12:21:27;;;;;;;8.00;3.75;;;6.90;92.40;;;;;;5089304;28;20476;-69
2022/02/13 12:24:03;;;;;;;10.73;3.75;;;7.00;92.50;;;;;;5093032;28;20127;-68
2022/02/13 12:26:30;;;;;;;5.03;2.33;;;7.00;92.50;;;;;;5092704;28;20063;-67
2022/02/13 12:28:58;;;;;;;9.40;4.22;;;7.00;92.60;;;;;;5092172;28;20027;-67
2022/02/13 12:31:24;;;;;;;8.07;4.15;;;7.10;92.60;;;;;;5092485;28;20036;-68
2022/02/13 12:33:53;;;;;;;4.15;2.67;;;7.20;92.50;;;;;;5092547;28;20012;-67
2022/02/13 12:36:23;;;;;;;7.80;4.60;;;7.20;92.80;;;;;;5092845;28;20032;-67
2022/02/13 12:38:53;;;;;;;8.27;2.95;;;7.30;92.50;;;;;;5080362;28;20037;-67
2022/02/13 12:41:19;;;;;;;3.83;2.00;;;7.20;92.50;;;;;;5088619;28;20037;-67
2022/02/13 12:43:45;;;;;;;8.02;3.13;;;7.40;92.60;;;;;;5086625;28;20093;-67
2022/02/13 12:46:19;;;;;;;5.45;3.25;;;7.40;92.60;;;;;;5091063;28;20045;-68
2022/02/13 12:48:46;;;;;;;4.65;2.70;;;7.50;92.60;;;;;;5085038;28;20032;-68
2022/02/13 12:51:12;;;;;;;5.80;3.08;;;7.50;92.50;;;;;;5091207;28;20039;-68
2022/02/13 12:53:46;;;;;;;8.75;4.32;;;7.60;92.40;;;;;;5091300;28;20121;-67
2022/02/13 12:56:15;;;;;;;5.15;3.05;;;7.60;92.40;;;;;;5090644;28;20082;-66